Time;durP1;ratioP1;P1;durP2;ratioP2;P2;SDS_P1;SDS_P2;PMS_P1;PMS_P2;Temp;Humidity;BMP_temperature;BMP_pressure;BME280_temperature;BME280_humidity;BME280_pressure;Samples;Min_cycle;Max_cycle;Signal;HPM_P1;HPM_P2
2022/07/14 00:00:06;;;;;;;14.43;3.47;;;;;;;;;;5039679;28;20506;-72
2022/07/14 00:02:32;;;;;;;16.23;3.08;;;;;;;;;;5041189;28;20041;-73
2022/07/14 00:04:58;;;;;;;12.82;3.25;;;;;;;;;;5041081;28;20128;-73
2022/07/14 00:07:24;;;;;;;13.40;3.17;;;;;;;;;;5032053;28;20103;-73
2022/07/14 00:09:50;;;;;;;18.77;3.45;;;;;;;;;;5046518;28;20383;-71
2022/07/14 00:12:17;;;;;;;14.40;2.80;;;;;;;;;;5042429;28;20134;-72
2022/07/14 00:14:43;;;;;;;14.50;3.55;;;;;;;;;;5038764;28;20033;-73
2022/07/14 00:17:09;;;;;;;19.23;3.13;;;;;;;;;;5043518;28;20431;-73
2022/07/14 00:19:35;;;;;;;14.90;3.08;;;;;;;;;;5044867;28;20107;-73
2022/07/14 00:22:01;;;;;;;18.52;3.45;;;;;;;;;;5040269;28;20152;-72
2022/07/14 00:24:29;;;;;;;15.38;3.05;;;;;;;;;;5036608;28;20041;-73
2022/07/14 00:26:55;;;;;;;32.90;4.00;;;;;;;;;;5041432;28;20120;-73
2022/07/14 00:29:22;;;;;;;17.17;3.55;;;;;;;;;;5044895;28;20043;-72
2022/07/14 00:31:48;;;;;;;14.02;3.65;;;;;;;;;;5047799;28;20144;-72
2022/07/14 00:34:14;;;;;;;17.30;3.40;;;;;;;;;;5046845;28;20087;-71
2022/07/14 00:36:41;;;;;;;15.68;3.38;;;;;;;;;;5042985;28;20063;-72
2022/07/14 00:39:07;;;;;;;19.40;3.08;;;;;;;;;;5048942;28;20272;-73
2022/07/14 00:41:34;;;;;;;11.70;3.25;;;;;;;;;;5048439;28;20478;-74
2022/07/14 00:44:03;;;;;;;16.60;3.20;;;;;;;;;;5041960;28;20075;-73
2022/07/14 00:46:29;;;;;;;15.23;2.97;;;;;;;;;;5043811;28;20525;-73
2022/07/14 00:48:55;;;;;;;22.80;3.22;;;;;;;;;;5044291;28;20096;-72
2022/07/14 00:51:21;;;;;;;17.35;4.22;;;;;;;;;;5044205;28;20561;-72
2022/07/14 00:53:52;;;;;;;12.85;3.20;;;;;;;;;;5048169;28;20080;-73
2022/07/14 00:56:18;;;;;;;15.20;3.28;;;;;;;;;;5045825;28;20084;-73
2022/07/14 00:58:44;;;;;;;20.63;3.38;;;;;;;;;;5048406;28;20034;-72
2022/07/14 01:01:11;;;;;;;17.00;3.10;;;;;;;;;;5043003;28;20076;-72
2022/07/14 01:03:37;;;;;;;18.80;4.43;;;;;;;;;;5048874;28;20059;-73
2022/07/14 01:06:04;;;;;;;11.13;2.92;;;;;;;;;;5045256;28;20115;-73
2022/07/14 01:08:30;;;;;;;12.02;3.05;;;;;;;;;;5046373;28;20037;-74
2022/07/14 01:10:56;;;;;;;16.17;3.40;;;;;;;;;;5037480;28;20912;-73
2022/07/14 01:13:22;;;;;;;10.82;3.08;;;;;;;;;;5031587;28;20040;-73
2022/07/14 01:15:48;;;;;;;11.90;2.83;;;;;;;;;;5042854;28;20040;-72
2022/07/14 01:18:14;;;;;;;12.07;2.60;;;;;;;;;;5038303;28;20273;-73
2022/07/14 01:20:41;;;;;;;17.20;3.53;;;;;;;;;;5044805;28;20025;-73
2022/07/14 01:23:07;;;;;;;14.48;3.00;;;;;;;;;;5037767;28;20032;-73
2022/07/14 01:25:33;;;;;;;17.35;3.88;;;;;;;;;;5037347;28;20037;-73
2022/07/14 01:28:00;;;;;;;12.57;2.83;;;;;;;;;;5043739;28;20050;-73
2022/07/14 01:30:26;;;;;;;18.05;3.03;;;;;;;;;;5046020;28;20051;-72
2022/07/14 01:32:52;;;;;;;15.68;3.30;;;;;;;;;;5044828;28;20033;-72
2022/07/14 01:35:18;;;;;;;20.25;3.50;;;;;;;;;;5039815;28;20057;-72
2022/07/14 01:37:48;;;;;;;19.27;4.65;;;;;;;;;;5046899;28;20044;-74
2022/07/14 01:40:14;;;;;;;11.23;2.75;;;;;;;;;;5047551;28;20025;-72
2022/07/14 01:42:42;;;;;;;13.02;3.03;;;;;;;;;;5034656;28;20041;-72
2022/07/14 01:45:08;;;;;;;9.40;2.80;;;;;;;;;;5041565;28;20079;-72
2022/07/14 01:47:34;;;;;;;13.43;3.10;;;;;;;;;;5044465;28;20083;-73
2022/07/14 01:50:00;;;;;;;12.98;3.17;;;;;;;;;;5042989;28;20033;-71
2022/07/14 01:52:26;;;;;;;13.82;3.28;;;;;;;;;;5043309;28;20037;-72
2022/07/14 01:54:52;;;;;;;16.13;4.07;;;;;;;;;;5034775;28;20049;-72
2022/07/14 01:57:18;;;;;;;14.93;3.80;;;;;;;;;;5044036;28;20115;-72
2022/07/14 01:59:44;;;;;;;13.75;4.13;;;;;;;;;;5041099;28;20031;-72
2022/07/14 02:02:12;;;;;;;13.93;4.15;;;;;;;;;;5043251;28;20452;-72
2022/07/14 02:04:38;;;;;;;19.88;5.10;;;;;;;;;;5046735;28;20416;-73
2022/07/14 02:07:04;;;;;;;12.10;4.20;;;;;;;;;;5045498;28;20041;-71
2022/07/14 02:12:15;;;;;;;13.88;4.20;;;;;;;;;;5046568;28;20039;-72
2022/07/14 02:14:42;;;;;;;13.20;4.10;;;;;;;;;;5045607;28;20029;-73
2022/07/14 02:17:09;;;;;;;17.17;4.60;;;;;;;;;;5042111;28;20043;-72
2022/07/14 02:19:36;;;;;;;9.95;3.80;;;;;;;;;;5041469;28;20043;-70
2022/07/14 02:22:02;;;;;;;13.23;4.30;;;;;;;;;;5045217;28;20029;-72
2022/07/14 02:24:28;;;;;;;11.48;4.22;;;;;;;;;;5045391;28;20139;-71
2022/07/14 02:26:54;;;;;;;11.35;4.53;;;;;;;;;;5042938;28;20120;-72
2022/07/14 02:29:21;;;;;;;15.95;4.88;;;;;;;;;;5042133;28;20111;-71
2022/07/14 02:31:47;;;;;;;13.38;4.82;;;;;;;;;;5037628;28;20017;-73
2022/07/14 02:34:13;;;;;;;14.40;5.30;;;;;;;;;;5044895;28;20041;-73
2022/07/14 02:36:40;;;;;;;12.57;5.85;;;;;;;;;;5043207;28;20104;-72
2022/07/14 02:39:06;;;;;;;15.13;4.90;;;;;;;;;;5042025;28;20264;-70
2022/07/14 02:41:32;;;;;;;14.75;5.03;;;;;;;;;;5034046;28;20040;-72
2022/07/14 02:43:58;;;;;;;11.05;5.43;;;;;;;;;;5044686;28;20064;-72
2022/07/14 02:46:24;;;;;;;15.07;5.97;;;;;;;;;;5043909;28;20283;-72
2022/07/14 02:48:50;;;;;;;14.77;5.53;;;;;;;;;;5035076;28;20120;-72
2022/07/14 02:51:16;;;;;;;12.77;5.28;;;;;;;;;;5044337;28;20065;-72
2022/07/14 02:53:43;;;;;;;18.17;6.55;;;;;;;;;;5044525;28;20033;-72
2022/07/14 02:56:09;;;;;;;16.10;6.50;;;;;;;;;;5042148;28;20032;-72
2022/07/14 02:58:36;;;;;;;13.68;5.22;;;;;;;;;;5046084;28;20119;-72
2022/07/14 03:01:06;;;;;;;9.65;5.32;;;;;;;;;;5021532;28;20068;-73
2022/07/14 03:03:32;;;;;;;19.02;5.95;;;;;;;;;;5042932;28;20029;-73
2022/07/14 03:05:59;;;;;;;19.20;6.00;;;;;;;;;;5040615;28;20216;-72
2022/07/14 03:08:25;;;;;;;14.30;5.32;;;;;;;;;;5044597;28;20087;-71
2022/07/14 03:10:51;;;;;;;12.00;5.63;;;;;;;;;;5044833;28;20035;-73
2022/07/14 03:13:17;;;;;;;15.57;5.93;;;;;;;;;;5033522;28;20112;-72
2022/07/14 03:15:43;;;;;;;8.82;5.45;;;;;;;;;;5032742;28;20036;-72
2022/07/14 03:18:09;;;;;;;17.08;5.90;;;;;;;;;;5040142;28;20032;-72
2022/07/14 03:20:35;;;;;;;12.25;6.30;;;;;;;;;;5046123;28;20241;-73
2022/07/14 03:23:01;;;;;;;19.10;8.00;;;;;;;;;;5045816;28;20036;-72
2022/07/14 03:25:27;;;;;;;15.88;7.25;;;;;;;;;;5038682;28;20173;-71
2022/07/14 03:27:54;;;;;;;13.95;6.60;;;;;;;;;;5041350;28;20025;-72
2022/07/14 03:30:20;;;;;;;14.73;6.93;;;;;;;;;;5038164;28;20257;-72
2022/07/14 03:32:46;;;;;;;18.08;6.90;;;;;;;;;;5042655;28;20044;-72
2022/07/14 03:35:12;;;;;;;15.75;6.45;;;;;;;;;;5042867;28;20030;-71
2022/07/14 03:37:38;;;;;;;13.82;7.40;;;;;;;;;;5043704;28;21240;-71
2022/07/14 03:40:06;;;;;;;9.38;5.10;;;;;;;;;;5046296;28;20052;-71
2022/07/14 03:42:32;;;;;;;12.07;5.30;;;;;;;;;;5043641;28;20033;-72
2022/07/14 03:44:58;;;;;;;13.20;4.43;;;;;;;;;;5044368;28;20479;-72
2022/07/14 03:47:24;;;;;;;6.10;2.42;;;;;;;;;;5042868;28;20608;-72
2022/07/14 03:49:50;;;;;;;7.18;2.97;;;;;;;;;;5046491;28;20091;-72
2022/07/14 03:52:16;;;;;;;5.60;3.53;;;;;;;;;;5041726;28;20025;-71
2022/07/14 03:54:46;;;;;;;8.68;3.33;;;;;;;;;;5020635;28;20498;-72
2022/07/14 03:57:12;;;;;;;4.70;3.00;;;;;;;;;;5042919;28;20398;-72
2022/07/14 03:59:41;;;;;;;8.82;2.83;;;;;;;;;;5046155;28;20037;-72
2022/07/14 04:02:08;;;;;;;11.50;3.85;;;;;;;;;;5041357;28;20048;-73
2022/07/14 04:04:34;;;;;;;10.73;4.40;;;;;;;;;;5044641;28;20131;-72
2022/07/14 04:07:00;;;;;;;13.45;5.57;;;;;;;;;;5043641;28;20029;-72
2022/07/14 04:09:27;;;;;;;23.38;6.10;;;;;;;;;;5049199;28;20033;-72
2022/07/14 04:11:53;;;;;;;14.75;7.15;;;;;;;;;;5041802;28;20538;-72
2022/07/14 04:14:19;;;;;;;16.38;7.38;;;;;;;;;;5050615;28;20028;-71
2022/07/14 04:16:45;;;;;;;14.98;7.45;;;;;;;;;;5040750;28;20029;-72
2022/07/14 04:19:12;;;;;;;12.90;6.43;;;;;;;;;;5046672;28;20025;-74
2022/07/14 04:21:38;;;;;;;9.25;6.68;;;;;;;;;;5041527;28;20037;-73
2022/07/14 04:24:04;;;;;;;13.23;4.18;;;;;;;;;;5050233;28;20501;-72
2022/07/14 04:26:30;;;;;;;7.05;3.80;;;;;;;;;;5045799;28;20033;-72
2022/07/14 04:28:56;;;;;;;4.55;2.70;;;;;;;;;;5062145;28;20041;-72
2022/07/14 04:31:23;;;;;;;6.32;2.35;;;;;;;;;;5046133;28;20074;-72
2022/07/14 04:33:49;;;;;;;4.75;2.45;;;;;;;;;;5048248;28;20036;-72
2022/07/14 04:36:15;;;;;;;2.67;2.13;;;;;;;;;;5036162;28;20025;-71
2022/07/14 04:38:41;;;;;;;2.15;1.95;;;;;;;;;;5049164;28;20478;-73
2022/07/14 04:41:07;;;;;;;4.47;2.42;;;;;;;;;;5047947;28;20044;-73
2022/07/14 04:43:33;;;;;;;3.05;1.70;;;;;;;;;;5045076;28;20037;-72
2022/07/14 04:45:59;;;;;;;3.47;1.60;;;;;;;;;;5047770;28;20064;-73
2022/07/14 04:48:25;;;;;;;5.72;1.90;;;;;;;;;;5040222;28;20038;-73
2022/07/14 04:53:37;;;;;;;3.42;1.35;;;;;;;;;;5046977;28;20044;-72
2022/07/14 04:56:03;;;;;;;4.43;1.58;;;;;;;;;;5046568;28;20060;-72
2022/07/14 04:58:30;;;;;;;4.65;1.40;;;;;;;;;;5045454;28;20048;-72
2022/07/14 05:00:59;;;;;;;2.22;1.10;;;;;;;;;;5044374;28;20032;-72
2022/07/14 05:03:25;;;;;;;4.53;1.30;;;;;;;;;;5041262;28;20022;-72
2022/07/14 05:05:52;;;;;;;2.38;1.20;;;;;;;;;;5045991;28;20112;-72
2022/07/14 05:08:18;;;;;;;16.65;2.35;;;;;;;;;;5048131;28;20118;-72
2022/07/14 05:10:44;;;;;;;2.80;1.40;;;;;;;;;;5043970;28;20029;-72
2022/07/14 05:13:10;;;;;;;4.03;1.40;;;;;;;;;;5046058;28;20119;-73
2022/07/14 05:15:36;;;;;;;4.38;1.45;;;;;;;;;;5039057;28;20047;-72
2022/07/14 05:18:02;;;;;;;12.85;7.72;;;;;;;;;;5046174;28;20040;-73
2022/07/14 05:20:29;;;;;;;14.82;1.80;;;;;;;;;;5023226;28;20036;-72
2022/07/14 05:22:55;;;;;;;11.07;1.92;;;;;;;;;;5046171;28;20533;-72
2022/07/14 05:25:21;;;;;;;6.70;2.05;;;;;;;;;;5042309;28;21642;-71
2022/07/14 05:27:47;;;;;;;6.80;1.90;;;;;;;;;;5031718;28;20417;-71
2022/07/14 05:30:13;;;;;;;9.55;2.85;;;;;;;;;;5037546;28;21072;-73
2022/07/14 05:32:39;;;;;;;19.63;2.47;;;;;;;;;;5038401;28;20017;-71
2022/07/14 05:35:05;;;;;;;8.90;1.88;;;;;;;;;;5036993;28;20025;-72
2022/07/14 05:37:32;;;;;;;13.60;2.30;;;;;;;;;;5036509;28;20056;-71
2022/07/14 05:39:58;;;;;;;7.30;1.90;;;;;;;;;;5034044;28;20494;-72
2022/07/14 05:42:24;;;;;;;9.73;1.80;;;;;;;;;;5034009;28;20065;-73
2022/07/14 05:44:51;;;;;;;8.95;1.60;;;;;;;;;;5044729;28;20758;-72
2022/07/14 05:47:17;;;;;;;5.88;1.70;;;;;;;;;;5035559;28;20033;-73
2022/07/14 05:49:43;;;;;;;5.45;1.92;;;;;;;;;;5048446;28;20064;-72
2022/07/14 05:52:13;;;;;;;9.40;1.73;;;;;;;;;;5050907;28;20032;-72
2022/07/14 05:54:39;;;;;;;6.38;2.00;;;;;;;;;;5048587;28;20045;-71
2022/07/14 05:57:05;;;;;;;10.68;1.90;;;;;;;;;;5043993;28;20040;-72
2022/07/14 05:59:31;;;;;;;13.30;2.15;;;;;;;;;;5046173;28;20053;-73
2022/07/14 06:01:57;;;;;;;13.82;2.35;;;;;;;;;;5044107;28;20078;-73
2022/07/14 06:04:23;;;;;;;14.13;2.67;;;;;;;;;;5047782;28;20034;-71
2022/07/14 06:06:49;;;;;;;9.32;1.75;;;;;;;;;;5046645;28;20032;-72
2022/07/14 06:09:17;;;;;;;17.25;2.80;;;;;;;;;;5047527;28;20048;-72
2022/07/14 06:11:45;;;;;;;12.77;2.13;;;;;;;;;;5039436;28;20028;-74
2022/07/14 06:14:11;;;;;;;9.32;2.10;;;;;;;;;;5040450;28;20036;-71
2022/07/14 06:16:39;;;;;;;11.25;2.40;;;;;;;;;;5044524;28;20042;-71
2022/07/14 06:19:05;;;;;;;9.52;2.25;;;;;;;;;;5044808;28;20560;-72
2022/07/14 06:21:31;;;;;;;13.43;2.45;;;;;;;;;;5037865;28;20029;-72
2022/07/14 06:23:57;;;;;;;16.52;2.70;;;;;;;;;;5034025;28;20150;-73
2022/07/14 06:26:24;;;;;;;11.63;2.00;;;;;;;;;;5036298;28;20100;-72
2022/07/14 06:28:50;;;;;;;13.93;2.47;;;;;;;;;;5040237;28;20151;-72
2022/07/14 06:31:16;;;;;;;10.25;1.60;;;;;;;;;;5040175;28;20025;-72
2022/07/14 06:33:43;;;;;;;14.15;2.63;;;;;;;;;;5037774;28;20045;-73
2022/07/14 06:36:09;;;;;;;8.48;1.52;;;;;;;;;;5037288;28;20033;-73
2022/07/14 06:38:35;;;;;;;14.70;1.65;;;;;;;;;;5039860;28;20044;-74
2022/07/14 06:41:01;;;;;;;10.95;2.13;;;;;;;;;;5039475;28;20782;-73
2022/07/14 06:43:28;;;;;;;20.42;2.20;;;;;;;;;;5036242;28;20099;-73
2022/07/14 06:45:54;;;;;;;9.80;1.60;;;;;;;;;;5039305;28;20029;-71
2022/07/14 06:48:23;;;;;;;14.80;1.63;;;;;;;;;;5022046;28;20515;-72
2022/07/14 06:50:48;;;;;;;10.13;1.60;;;;;;;;;;5043018;28;20120;-72
2022/07/14 06:53:15;;;;;;;19.75;2.60;;;;;;;;;;5041466;28;20120;-72
2022/07/14 06:55:41;;;;;;;13.00;1.65;;;;;;;;;;5038500;28;20033;-72
2022/07/14 06:58:07;;;;;;;7.90;1.33;;;;;;;;;;5037794;28;20032;-72
2022/07/14 07:00:33;;;;;;;9.23;1.83;;;;;;;;;;5033756;28;20037;-72
2022/07/14 07:02:59;;;;;;;6.35;1.40;;;;;;;;;;5034045;28;20037;-71
2022/07/14 07:08:09;;;;;;;13.50;1.80;;;;;;;;;;5041472;28;20056;-72
2022/07/14 07:10:40;;;;;;;7.60;1.85;;;;;;;;;;5039350;28;20025;-74
2022/07/14 07:13:07;;;;;;;7.45;1.35;;;;;;;;;;5037340;28;20056;-72
2022/07/14 07:15:33;;;;;;;6.72;1.50;;;;;;;;;;5038924;28;20022;-72
2022/07/14 07:17:59;;;;;;;11.65;1.60;;;;;;;;;;5034204;28;20458;-72
2022/07/14 07:20:25;;;;;;;12.05;2.05;;;;;;;;;;5035280;28;20034;-72
2022/07/14 07:22:51;;;;;;;9.93;2.50;;;;;;;;;;5039564;28;20040;-72
2022/07/14 07:25:17;;;;;;;10.30;2.00;;;;;;;;;;5038301;28;20037;-72
2022/07/14 07:27:43;;;;;;;8.07;1.67;;;;;;;;;;5034828;28;20056;-74
2022/07/14 07:30:10;;;;;;;10.65;1.60;;;;;;;;;;5037175;28;20025;-72
2022/07/14 07:32:36;;;;;;;11.75;2.35;;;;;;;;;;5020254;28;20474;-72
2022/07/14 07:35:03;;;;;;;9.02;1.90;;;;;;;;;;5036310;28;20119;-73
2022/07/14 07:37:28;;;;;;;9.32;2.20;;;;;;;;;;5035106;28;20044;-72
2022/07/14 07:39:57;;;;;;;11.52;2.10;;;;;;;;;;5035464;28;20406;-73
2022/07/14 07:42:23;;;;;;;9.50;2.15;;;;;;;;;;5041028;28;20025;-73
2022/07/14 07:44:49;;;;;;;12.25;2.10;;;;;;;;;;5047372;28;20411;-73
2022/07/14 07:47:15;;;;;;;15.20;2.95;;;;;;;;;;5041024;28;20079;-71
2022/07/14 07:49:42;;;;;;;10.88;1.90;;;;;;;;;;5048948;28;20059;-73
2022/07/14 07:52:08;;;;;;;7.45;1.45;;;;;;;;;;5042093;28;20140;-72
2022/07/14 07:54:34;;;;;;;9.43;1.90;;;;;;;;;;5043325;28;20041;-72
2022/07/14 07:57:00;;;;;;;8.25;1.67;;;;;;;;;;5038154;28;20544;-72
2022/07/14 07:59:27;;;;;;;9.00;1.90;;;;;;;;;;5043132;28;20087;-71
2022/07/14 08:01:53;;;;;;;6.82;1.52;;;;;;;;;;5040508;28;20029;-72
2022/07/14 08:04:20;;;;;;;7.45;1.60;;;;;;;;;;5041916;28;20037;-72
2022/07/14 08:06:46;;;;;;;8.73;1.70;;;;;;;;;;5037526;28;20041;-74
2022/07/14 08:09:12;;;;;;;8.85;1.80;;;;;;;;;;5038291;28;20033;-72
2022/07/14 08:11:39;;;;;;;13.10;2.15;;;;;;;;;;5043391;28;20073;-73
2022/07/14 08:14:05;;;;;;;8.18;2.10;;;;;;;;;;5038816;28;20460;-73
2022/07/14 08:16:31;;;;;;;8.43;1.60;;;;;;;;;;5024643;28;20116;-72
2022/07/14 08:18:57;;;;;;;6.70;1.60;;;;;;;;;;5041211;28;20041;-72
2022/07/14 08:21:23;;;;;;;8.60;1.88;;;;;;;;;;5041588;28;20041;-71
2022/07/14 08:23:50;;;;;;;8.75;1.80;;;;;;;;;;5037945;28;20049;-73
2022/07/14 08:26:16;;;;;;;11.60;1.88;;;;;;;;;;5039710;28;20072;-72
2022/07/14 08:28:42;;;;;;;8.40;1.65;;;;;;;;;;5041805;28;20075;-73
2022/07/14 08:31:08;;;;;;;12.38;2.03;;;;;;;;;;5038638;28;20033;-73
2022/07/14 08:33:34;;;;;;;7.85;1.63;;;;;;;;;;5045710;28;20021;-73
2022/07/14 08:36:01;;;;;;;9.45;2.13;;;;;;;;;;5039129;28;20111;-73
2022/07/14 08:38:27;;;;;;;6.70;1.55;;;;;;;;;;5041152;28;20047;-72
2022/07/14 08:40:53;;;;;;;7.82;1.58;;;;;;;;;;5041323;28;20083;-71
2022/07/14 08:43:19;;;;;;;8.75;1.60;;;;;;;;;;5040254;28;20037;-72
2022/07/14 08:45:47;;;;;;;9.15;1.48;;;;;;;;;;5042761;28;20033;-74
2022/07/14 08:48:14;;;;;;;7.45;1.50;;;;;;;;;;5040110;28;20116;-73
2022/07/14 08:50:41;;;;;;;13.95;2.10;;;;;;;;;;5043449;28;20116;-74
2022/07/14 08:53:09;;;;;;;10.60;1.90;;;;;;;;;;5037484;28;20033;-74
2022/07/14 08:55:35;;;;;;;6.53;1.60;;;;;;;;;;5037892;28;20036;-73
2022/07/14 08:58:01;;;;;;;10.00;1.70;;;;;;;;;;5055518;28;20037;-73
2022/07/14 09:00:27;;;;;;;10.63;1.58;;;;;;;;;;5037250;28;20028;-72
2022/07/14 09:02:55;;;;;;;8.38;1.70;;;;;;;;;;5056997;28;20498;-72
2022/07/14 09:05:21;;;;;;;8.68;1.70;;;;;;;;;;5038989;28;20041;-71
2022/07/14 09:07:54;;;;;;;7.00;1.20;;;;;;;;;;5041531;28;20025;-73
2022/07/14 09:10:23;;;;;;;7.05;1.40;;;;;;;;;;5039663;28;20159;-72
2022/07/14 09:12:49;;;;;;;7.22;1.27;;;;;;;;;;5038270;28;20087;-74
2022/07/14 09:17:59;;;;;;;8.10;1.60;;;;;;;;;;5042486;28;20438;-71
2022/07/14 09:20:28;;;;;;;7.90;1.88;;;;;;;;;;5041783;28;20030;-73
2022/07/14 09:22:57;;;;;;;7.40;1.58;;;;;;;;;;5047406;28;20031;-72
2022/07/14 09:25:24;;;;;;;6.35;1.75;;;;;;;;;;5051936;28;20032;-72
2022/07/14 09:27:50;;;;;;;7.63;1.30;;;;;;;;;;5046169;28;20033;-70
2022/07/14 09:30:16;;;;;;;6.43;1.10;;;;;;;;;;5055931;28;20100;-72
2022/07/14 09:32:51;;;;;;;3.40;0.82;;;;;;;;;;5046366;28;20025;-72
2022/07/14 09:35:18;;;;;;;4.45;1.00;;;;;;;;;;5044544;28;20600;-72
2022/07/14 09:37:46;;;;;;;7.43;1.42;;;;;;;;;;5046508;28;20017;-72
2022/07/14 09:40:15;;;;;;;3.67;0.90;;;;;;;;;;5053948;28;20033;-71
2022/07/14 09:42:52;;;;;;;6.38;1.20;;;;;;;;;;5051473;28;20037;-73
2022/07/14 09:45:22;;;;;;;8.63;1.58;;;;;;;;;;5054071;28;20142;-72
2022/07/14 09:47:53;;;;;;;6.78;1.17;;;;;;;;;;5050078;28;20477;-72
2022/07/14 09:50:37;;;;;;;2.42;0.93;;;;;;;;;;5048217;28;20025;-71
2022/07/14 09:53:22;;;;;;;5.13;1.33;;;;;;;;;;5046795;28;20037;-72
2022/07/14 09:55:52;;;;;;;5.00;1.02;;;;;;;;;;5036695;28;20375;-73
2022/07/14 09:58:18;;;;;;;5.88;1.10;;;;;;;;;;5052678;28;20053;-73
2022/07/14 10:00:53;;;;;;;6.03;1.20;;;;;;;;;;5051582;28;20030;-72
2022/07/14 10:03:20;;;;;;;4.63;1.17;;;;;;;;;;5050897;28;20104;-73
2022/07/14 10:05:46;;;;;;;6.10;1.10;;;;;;;;;;5043800;28;20391;-73
2022/07/14 10:08:13;;;;;;;5.78;0.98;;;;;;;;;;5049540;28;20570;-71
2022/07/14 10:10:40;;;;;;;5.22;1.15;;;;;;;;;;5046836;28;20025;-73
2022/07/14 10:13:07;;;;;;;6.93;1.05;;;;;;;;;;5040172;28;20037;-73
2022/07/14 10:15:33;;;;;;;3.00;0.93;;;;;;;;;;5045491;28;20060;-72
2022/07/14 10:18:01;;;;;;;3.70;1.08;;;;;;;;;;5044448;28;20033;-73
2022/07/14 10:20:27;;;;;;;5.07;1.40;;;;;;;;;;5043294;28;20366;-73
2022/07/14 10:22:55;;;;;;;2.95;1.27;;;;;;;;;;5043940;28;20124;-72
2022/07/14 10:25:21;;;;;;;3.50;1.05;;;;;;;;;;5038011;28;20454;-73
2022/07/14 10:27:47;;;;;;;4.43;0.85;;;;;;;;;;5045590;28;20088;-73
2022/07/14 10:30:17;;;;;;;3.20;0.88;;;;;;;;;;5051997;28;20028;-74
2022/07/14 10:32:56;;;;;;;4.75;1.10;;;;;;;;;;5041528;28;20503;-71
2022/07/14 10:35:31;;;;;;;3.20;0.90;;;;;;;;;;5039717;28;20032;-73
2022/07/14 10:38:17;;;;;;;3.92;1.00;;;;;;;;;;5047047;28;20514;-73
2022/07/14 10:40:46;;;;;;;16.55;1.10;;;;;;;;;;5039642;28;20044;-73
2022/07/14 10:43:24;;;;;;;4.57;1.05;;;;;;;;;;5043369;28;20494;-74
2022/07/14 10:45:54;;;;;;;6.97;1.65;;;;;;;;;;5045608;28;20041;-74
2022/07/14 10:48:36;;;;;;;5.18;1.35;;;;;;;;;;5044443;28;20044;-74
2022/07/14 10:51:15;;;;;;;8.30;1.48;;;;;;;;;;5045048;28;20017;-74
2022/07/14 10:54:00;;;;;;;7.43;1.48;;;;;;;;;;5039254;28;20044;-74
2022/07/14 10:56:27;;;;;;;4.95;1.25;;;;;;;;;;5051448;28;20063;-73
2022/07/14 10:59:11;;;;;;;7.53;1.30;;;;;;;;;;5039909;28;20060;-73
2022/07/14 11:01:37;;;;;;;4.13;1.15;;;;;;;;;;5040194;28;20029;-73
2022/07/14 11:04:03;;;;;;;9.00;1.58;;;;;;;;;;5048663;28;20070;-73
2022/07/14 11:06:29;;;;;;;5.95;1.38;;;;;;;;;;5040585;28;20038;-74
2022/07/14 11:09:31;;;;;;;5.85;1.20;;;;;;;;;;5036459;28;20030;-74
2022/07/14 11:12:17;;;;;;;9.27;1.70;;;;;;;;;;4963389;28;20077;-74
2022/07/14 11:14:44;;;;;;;9.10;1.20;;;;;;;;;;5037866;28;20039;-73
2022/07/14 11:17:28;;;;;;;6.18;1.40;;;;;;;;;;5045168;28;20036;-73
2022/07/14 11:19:54;;;;;;;8.02;1.45;;;;;;;;;;5034764;28;20025;-73
2022/07/14 11:22:23;;;;;;;8.30;1.58;;;;;;;;;;5040927;28;20069;-74
2022/07/14 11:24:54;;;;;;;5.75;1.60;;;;;;;;;;5043616;28;20087;-73
2022/07/14 11:27:37;;;;;;;6.65;1.38;;;;;;;;;;5040115;28;20036;-74
2022/07/14 11:30:21;;;;;;;14.60;2.13;;;;;;;;;;5035086;28;20036;-73
2022/07/14 11:32:57;;;;;;;5.85;1.30;;;;;;;;;;5046587;28;20029;-73
2022/07/14 11:38:26;;;;;;;4.60;1.40;;;;;;;;;;5043012;28;20059;-74
2022/07/14 11:40:53;;;;;;;4.60;1.40;;;;;;;;;;5049247;28;20028;-74
2022/07/14 11:43:28;;;;;;;5.70;1.50;;;;;;;;;;5038859;28;20120;-74
2022/07/14 11:46:01;;;;;;;7.55;2.00;;;;;;;;;;5039518;28;20462;-74
2022/07/14 11:48:32;;;;;;;13.38;1.77;;;;;;;;;;5044907;28;20052;-75
2022/07/14 11:51:09;;;;;;;4.07;1.33;;;;;;;;;;5040595;28;20036;-74
2022/07/14 11:53:35;;;;;;;4.60;1.10;;;;;;;;;;5034474;28;20108;-74
2022/07/14 11:56:03;;;;;;;8.95;1.40;;;;;;;;;;5032934;28;20040;-75
2022/07/14 11:58:30;;;;;;;7.55;1.35;;;;;;;;;;5032769;28;20037;-75
2022/07/14 12:00:56;;;;;;;5.95;1.20;;;;;;;;;;5043890;28;20028;-74
2022/07/14 12:03:23;;;;;;;7.70;1.30;;;;;;;;;;5041095;28;20033;-75
2022/07/14 12:05:56;;;;;;;16.33;2.20;;;;;;;;;;5034154;28;20034;-73
2022/07/14 12:08:30;;;;;;;11.98;2.13;;;;;;;;;;5040789;28;20029;-76
2022/07/14 12:11:03;;;;;;;13.00;2.45;;;;;;;;;;5035687;28;20057;-73
2022/07/14 12:13:30;;;;;;;7.93;1.65;;;;;;;;;;5046377;28;20120;-74
2022/07/14 12:16:00;;;;;;;5.57;1.40;;;;;;;;;;5041282;28;20025;-74
2022/07/14 12:18:30;;;;;;;10.23;1.52;;;;;;;;;;5044819;28;20040;-73
2022/07/14 12:20:56;;;;;;;7.90;1.80;;;;;;;;;;5034706;28;20113;-72
2022/07/14 12:23:22;;;;;;;5.82;1.80;;;;;;;;;;5047046;28;20098;-74
2022/07/14 12:25:48;;;;;;;6.72;1.80;;;;;;;;;;5045436;28;20036;-74
2022/07/14 12:28:15;;;;;;;7.68;1.70;;;;;;;;;;5043372;28;20063;-74
2022/07/14 12:30:52;;;;;;;12.13;1.80;;;;;;;;;;5043385;28;20014;-74
2022/07/14 12:33:22;;;;;;;7.80;1.52;;;;;;;;;;5045658;28;20098;-74
2022/07/14 12:35:51;;;;;;;8.75;1.40;;;;;;;;;;5041069;28;20605;-74
2022/07/14 12:38:17;;;;;;;8.05;1.92;;;;;;;;;;5041329;28;20033;-74
2022/07/14 12:40:43;;;;;;;6.75;1.55;;;;;;;;;;5055905;28;20037;-73
2022/07/14 12:43:10;;;;;;;10.15;1.65;;;;;;;;;;5051111;28;20037;-74
2022/07/14 12:45:54;;;;;;;7.30;1.95;;;;;;;;;;5043603;28;20085;-72
2022/07/14 12:48:20;;;;;;;6.78;1.90;;;;;;;;;;5050024;28;20021;-75
2022/07/14 12:50:46;;;;;;;7.97;2.08;;;;;;;;;;5052621;28;20033;-74
2022/07/14 12:53:13;;;;;;;16.77;2.35;;;;;;;;;;5057275;28;20502;-72
2022/07/14 12:55:44;;;;;;;13.23;2.40;;;;;;;;;;5052565;28;20033;-73
2022/07/14 12:58:11;;;;;;;7.30;1.80;;;;;;;;;;5046811;28;20391;-73
2022/07/14 13:00:39;;;;;;;4.95;1.92;;;;;;;;;;5049271;28;20359;-74
2022/07/14 13:03:07;;;;;;;9.93;1.65;;;;;;;;;;5050861;28;20384;-73
2022/07/14 13:05:34;;;;;;;4.95;1.80;;;;;;;;;;5052413;28;20148;-74
2022/07/14 13:08:00;;;;;;;10.02;1.83;;;;;;;;;;5054120;28;20075;-74
2022/07/14 13:10:26;;;;;;;6.25;1.95;;;;;;;;;;5038865;28;20543;-74
2022/07/14 13:12:56;;;;;;;6.43;1.73;;;;;;;;;;5046312;28;20025;-75
2022/07/14 13:15:26;;;;;;;9.97;1.57;;;;;;;;;;5057413;28;20033;-74
2022/07/14 13:18:08;;;;;;;4.03;1.10;;;;;;;;;;5052677;28;20029;-72
2022/07/14 13:23:28;;;;;;;24.73;2.30;;;;;;;;;;5055637;28;20095;-73
2022/07/14 13:25:55;;;;;;;9.35;1.80;;;;;;;;;;5048457;28;20029;-73
2022/07/14 13:28:27;;;;;;;7.35;1.80;;;;;;;;;;5042060;28;20040;-74
2022/07/14 13:30:53;;;;;;;5.97;1.23;;;;;;;;;;5039363;28;20063;-72
2022/07/14 13:33:19;;;;;;;7.15;1.50;;;;;;;;;;5040341;28;20029;-74
2022/07/14 13:35:45;;;;;;;42.25;6.78;;;;;;;;;;5048631;28;20025;-75
2022/07/14 13:38:11;;;;;;;22.58;2.25;;;;;;;;;;5047162;28;20517;-73
2022/07/14 13:40:37;;;;;;;9.43;1.65;;;;;;;;;;5057275;28;20033;-73
2022/07/14 13:43:03;;;;;;;6.93;1.90;;;;;;;;;;5050173;28;20044;-72
2022/07/14 13:45:29;;;;;;;6.72;1.23;;;;;;;;;;5054967;28;20140;-73
2022/07/14 13:47:55;;;;;;;5.07;1.00;;;;;;;;;;5047654;28;20453;-72
2022/07/14 13:53:06;;;;;;;4.60;1.40;;;;;;;;;;5055752;28;20459;-74
2022/07/14 13:55:32;;;;;;;5.93;1.42;;;;;;;;;;5053628;28;20069;-74
2022/07/14 13:57:59;;;;;;;9.52;0.93;;;;;;;;;;5052451;28;20033;-72
2022/07/14 14:00:25;;;;;;;4.88;0.70;;;;;;;;;;5041719;28;20028;-75
2022/07/14 14:05:36;;;;;;;5.43;1.08;;;;;;;;;;5056834;28;20585;-74
2022/07/14 14:08:03;;;;;;;2.58;1.00;;;;;;;;;;5041885;28;20119;-76
2022/07/14 14:10:29;;;;;;;8.13;1.50;;;;;;;;;;5045737;28;20040;-74
2022/07/14 14:12:55;;;;;;;8.00;1.30;;;;;;;;;;5049112;28;20054;-72
2022/07/14 14:15:21;;;;;;;5.60;1.25;;;;;;;;;;5048244;28;20105;-72
2022/07/14 14:17:47;;;;;;;4.72;1.05;;;;;;;;;;5041014;28;20024;-73
2022/07/14 14:20:13;;;;;;;3.90;0.95;;;;;;;;;;5043835;28;20042;-71
2022/07/14 14:22:40;;;;;;;6.40;1.00;;;;;;;;;;5063698;28;20479;-73
2022/07/14 14:25:06;;;;;;;9.90;1.33;;;;;;;;;;5045172;28;20041;-73
2022/07/14 14:27:32;;;;;;;5.50;1.13;;;;;;;;;;5047984;28;20041;-74
2022/07/14 14:29:58;;;;;;;5.03;1.38;;;;;;;;;;5045948;28;20034;-74
2022/07/14 14:32:25;;;;;;;4.85;1.27;;;;;;;;;;5050133;28;20237;-74
2022/07/14 14:34:51;;;;;;;5.07;0.98;;;;;;;;;;5039947;28;20116;-74
2022/07/14 14:37:17;;;;;;;4.70;1.23;;;;;;;;;;5036668;28;20128;-73
2022/07/14 14:39:43;;;;;;;4.80;1.10;;;;;;;;;;5047018;28;20025;-73
2022/07/14 14:42:10;;;;;;;11.00;1.15;;;;;;;;;;5046254;28;20053;-73
2022/07/14 14:44:37;;;;;;;5.65;0.88;;;;;;;;;;5042068;28;20034;-75
2022/07/14 14:47:03;;;;;;;4.82;1.02;;;;;;;;;;5045153;28;20038;-74
2022/07/14 14:49:34;;;;;;;6.68;1.00;;;;;;;;;;5043498;28;20061;-73
2022/07/14 14:52:00;;;;;;;;;;;;;;;;;;5035270;28;20038;-74
2022/07/14 14:54:26;;;;;;;3.15;0.98;;;;;;;;;;5041839;28;20283;-73
2022/07/14 14:56:52;;;;;;;10.35;1.90;;;;;;;;;;5035516;28;20025;-72
2022/07/14 14:59:18;;;;;;;8.02;1.20;;;;;;;;;;5038570;28;20029;-73
2022/07/14 15:01:44;;;;;;;5.70;1.02;;;;;;;;;;5045338;28;20021;-73